Here is the Quick Look data you requested

The Data originates at the National Weather Service, and is made available here by the UAlbany Department of Atmospheric and Environmental Sciences

Surface Observations

KCVG 210052Z 19006KT 10SM BKN250 M02/M09 A3006 RMK AO2 PRESFR SLP186 T10221094=
KCVG 210152Z 21003KT 10SM FEW250 M02/M09 A3005 RMK AO2 SLP181 T10221089=
KCVG 210252Z 19009KT 10SM SCT075 SCT250 M02/M09 A3000 RMK AO2 PRESFR SLP166
 T10171089 58030=
KCVG 210352Z 20010KT 10SM OVC080 00/M09 A2997 RMK AO2 SLP154 T00001094=
KCVG 210452Z 21010KT 10SM OVC075 01/M09 A2995 RMK AO2 SLP148 T00061094
 400331028=
KCVG 210552Z 21010KT 10SM BKN070 OVC085 02/M08 A2993 RMK AO2 SLP139 T00171083
 10017 21028 56024=
KCVG 210652Z 22010KT 10SM OVC070 02/M08 A2990 RMK AO2 SLP129 T00221078=
KCVG 210752Z 22009KT 10SM SCT070 01/M07 A2988 RMK AO2 SLP123 T00111072=
KCVG 210852Z 22009KT 10SM SCT070 02/M06 A2987 RMK AO2 SLP120 T00171061 56018=
KCVG 210952Z 22011KT 10SM FEW070 02/M04 A2987 RMK AO2 SLP118 T00221044=
KCVG 211052Z 23011KT 10SM FEW022 02/M03 A2986 RMK AO2 SLP116 T00221028=
KCVG 211152Z 23012KT 10SM CLR 02/M02 A2987 RMK AO2 SLP121 T00171017 10022 20011
 53000=
KCVG 211252Z 23011KT 8SM FEW011 02/M01 A2986 RMK AO2 SLP117 T00171011=
KCVG 211352Z 24011G19KT 8SM SCT014 02/M01 A2987 RMK AO2 SLP119 T00221006=
KCVG 211402Z 24009G16KT 9SM BKN014 02/M01 A2987 RMK AO2 T00221006=
KCVG 211423Z 24010G17KT 9SM SCT012 03/M01 A2987 RMK AO2 T00281006=
KCVG 211452Z 25008KT 10SM FEW012 03/00 A2987 RMK AO2 SLP120 T00330000 55000=
KCVG 211552Z 25010KT 10SM FEW016 05/M01 A2988 RMK AO2 SLP122 T00501006=
KCVG 211652Z 26010KT 10SM CLR 07/M01 A2986 RMK AO2 SLP113 T00721006=
KCVG 211752Z 26010KT 10SM FEW180 08/M02 A2983 RMK AO2 SLP104 T00831017 10089
 20017 58014=
KCVG 211852Z 25010G19KT 10SM FEW035 09/M03 A2981 RMK AO2 SLP095 T00941033=
KCVG 211952Z 26015KT 10SM FEW045 FEW250 11/M05 A2981 RMK AO2 SLP094 T01061050=
KCVG 212052Z 28016KT 10SM FEW250 10/M05 A2981 RMK AO2 SLP095 T01001050 55007=
KCVG 212152Z 26011KT 10SM FEW250 09/M06 A2981 RMK AO2 SLP095 T00941056=
KCVG 212252Z 25006KT 10SM FEW250 08/M07 A2981 RMK AO2 SLP098 T00781072=
KCVG 212352Z 25006KT 10SM FEW250 07/M07 A2983 RMK AO2 SLP102 T00671072 10106
 20067 53006=
KCVG 220052Z 24007KT 10SM FEW250 06/M06 A2984 RMK AO2 SLP108 T00611061=